createdAt,value
2023-02-14T00:01:28.937Z,11.20
2023-02-14T00:06:35.367Z,11.20
2023-02-14T00:11:36.949Z,10.27
2023-02-14T00:16:38.415Z,11.15
2023-02-14T00:21:40.455Z,11.98
2023-02-14T00:26:43.143Z,11.20
2023-02-14T00:31:45.238Z,11.02
2023-02-14T00:36:47.568Z,10.57
2023-02-14T00:41:49.041Z,11.27
2023-02-14T00:46:50.596Z,11.10
2023-02-14T00:51:52.104Z,11.63
2023-02-14T00:56:53.579Z,13.13
2023-02-14T01:01:55.131Z,12.90
2023-02-14T01:06:56.604Z,12.90
2023-02-14T01:11:58.035Z,13.98
2023-02-14T01:16:59.492Z,15.38
2023-02-14T01:22:00.924Z,13.93
2023-02-14T01:27:02.359Z,13.97
2023-02-14T01:32:04.012Z,14.18
2023-02-14T01:37:05.534Z,14.90
2023-02-14T01:42:07.081Z,14.13
2023-02-14T01:47:10.586Z,14.00
2023-02-14T01:52:18.310Z,14.77
2023-02-14T01:57:22.876Z,17.50
2023-02-14T02:07:29.131Z,20.60
2023-02-14T02:12:31.124Z,19.13
2023-02-14T02:18:11.121Z,22.63
2023-02-14T02:23:37.322Z,20.43
2023-02-14T02:29:00.486Z,19.47
2023-02-14T02:34:13.397Z,23.83
2023-02-14T02:39:32.754Z,21.97
2023-02-14T02:44:52.996Z,24.97
2023-02-14T02:50:24.484Z,26.10
2023-02-14T02:55:30.473Z,29.30
2023-02-14T03:00:32.058Z,31.03
2023-02-14T03:05:35.298Z,34.33
2023-02-14T03:10:39.168Z,36.40
2023-02-14T03:15:58.252Z,35.83
2023-02-14T03:21:03.285Z,34.70
2023-02-14T03:26:07.834Z,35.23
2023-02-14T03:31:37.016Z,33.00
2023-02-14T03:36:54.108Z,35.93
2023-02-14T03:42:07.530Z,36.83
2023-02-14T03:47:16.392Z,35.50
2023-02-14T03:52:19.411Z,31.80
2023-02-14T03:57:26.911Z,30.57
2023-02-14T04:02:54.472Z,31.33
2023-02-14T04:07:57.850Z,28.63
2023-02-14T04:12:59.311Z,28.73
2023-02-14T04:18:19.417Z,26.47
2023-02-14T04:23:20.921Z,24.80
2023-02-14T04:28:22.356Z,25.07
2023-02-14T04:33:23.764Z,24.97
2023-02-14T04:38:25.467Z,23.50
2023-02-14T04:43:26.944Z,23.00
2023-02-14T04:48:28.358Z,24.67
2023-02-14T04:53:29.915Z,24.37
2023-02-14T04:58:31.361Z,24.00
2023-02-14T05:03:32.828Z,23.43
2023-02-14T05:08:34.327Z,23.83
2023-02-14T05:13:35.880Z,23.90
2023-02-14T05:18:37.337Z,24.07
2023-02-14T05:23:38.877Z,22.77
2023-02-14T05:28:41.068Z,24.17
2023-02-14T05:33:42.872Z,23.33
2023-02-14T05:38:44.383Z,24.67
2023-02-14T05:43:45.940Z,24.67
2023-02-14T05:48:47.432Z,25.33
2023-02-14T05:53:48.939Z,24.67
2023-02-14T05:58:50.366Z,25.83
2023-02-14T06:03:51.880Z,26.83
2023-02-14T06:08:53.362Z,25.40
2023-02-14T06:13:54.799Z,25.17
2023-02-14T06:18:56.211Z,25.13
2023-02-14T06:23:57.739Z,27.40
2023-02-14T06:28:59.514Z,27.43
2023-02-14T06:34:01.120Z,26.63
2023-02-14T06:39:03.229Z,25.87
2023-02-14T06:44:04.877Z,27.90
2023-02-14T06:49:06.332Z,28.90
2023-02-14T06:54:07.787Z,27.07
2023-02-14T06:59:09.412Z,26.30
2023-02-14T07:04:11.577Z,27.20
2023-02-14T07:09:16.871Z,28.83
2023-02-14T07:14:18.316Z,26.87
2023-02-14T07:19:19.808Z,27.00
2023-02-14T07:24:21.358Z,27.67
2023-02-14T07:29:22.831Z,27.57
2023-02-14T07:34:24.698Z,27.83
2023-02-14T07:39:26.177Z,28.63
2023-02-14T07:44:27.773Z,28.97
2023-02-14T07:49:29.242Z,30.02
2023-02-14T07:54:30.702Z,26.52
2023-02-14T07:59:32.213Z,28.87
2023-02-14T08:04:34.003Z,28.00
2023-02-14T08:09:35.515Z,27.97
2023-02-14T08:14:37.526Z,26.70
2023-02-14T08:19:40.000Z,26.23
2023-02-14T08:24:42.448Z,26.48
2023-02-14T08:29:43.995Z,26.95
2023-02-14T08:34:45.540Z,26.45
2023-02-14T08:39:47.089Z,26.30
2023-02-14T08:44:48.612Z,26.92
2023-02-14T08:49:50.327Z,26.83
2023-02-14T08:54:51.853Z,25.55
2023-02-14T08:59:53.783Z,23.92
2023-02-14T09:04:55.285Z,25.17
2023-02-14T09:09:56.800Z,25.45
2023-02-14T09:14:58.364Z,25.95
2023-02-14T09:19:59.895Z,23.67
2023-02-14T09:25:01.406Z,25.77
2023-02-14T09:30:03.195Z,26.25
2023-02-14T09:35:05.148Z,27.63
2023-02-14T09:40:07.207Z,28.20
2023-02-14T09:45:21.050Z,29.13
2023-02-14T09:50:27.634Z,29.20
2023-02-14T09:55:39.964Z,26.40
2023-02-14T10:00:46.849Z,29.58
2023-02-14T10:06:07.512Z,27.85
2023-02-14T10:11:13.579Z,30.83
2023-02-14T10:16:21.113Z,29.10
2023-02-14T10:21:31.881Z,29.55
2023-02-14T10:26:38.244Z,31.10
2023-02-14T10:32:00.804Z,31.70
2023-02-14T10:37:27.813Z,31.40
2023-02-14T10:42:38.528Z,31.52
2023-02-14T10:48:10.731Z,31.98
2023-02-14T10:53:32.792Z,32.70
2023-02-14T10:58:38.476Z,31.52
2023-02-14T11:03:52.386Z,32.92
2023-02-14T11:08:56.261Z,32.63
2023-02-14T11:13:58.803Z,36.08
2023-02-14T11:19:09.170Z,33.03
2023-02-14T11:24:33.112Z,30.92
2023-02-14T11:29:39.216Z,31.15
2023-02-14T11:34:54.019Z,33.50
2023-02-14T11:39:58.111Z,33.30
2023-02-14T11:44:59.748Z,31.60
2023-02-14T11:50:07.294Z,31.42
2023-02-14T11:55:24.611Z,32.20
2023-02-14T12:00:27.037Z,30.35
2023-02-14T12:05:31.819Z,31.85
2023-02-14T12:10:35.663Z,32.30
2023-02-14T12:15:42.733Z,31.70
2023-02-14T12:20:49.668Z,30.88
2023-02-14T12:26:00.145Z,30.27
2023-02-14T12:31:02.144Z,31.60
2023-02-14T12:36:15.404Z,44.30
2023-02-14T12:42:00.050Z,30.77
2023-02-14T12:47:22.277Z,30.42
2023-02-14T12:53:02.679Z,31.10
2023-02-14T12:58:35.057Z,30.55
2023-02-14T13:04:04.697Z,31.25
2023-02-14T13:09:12.396Z,29.27
2023-02-14T13:14:47.878Z,30.80
2023-02-14T13:20:08.239Z,27.98
2023-02-14T13:25:31.682Z,31.75
2023-02-14T13:30:38.498Z,30.48
2023-02-14T13:35:41.224Z,30.67
2023-02-14T13:40:43.307Z,28.33
2023-02-14T13:45:55.059Z,31.38
2023-02-14T13:51:08.741Z,29.10
2023-02-14T13:56:13.170Z,29.92
2023-02-14T14:01:53.331Z,29.88
2023-02-14T14:07:03.433Z,31.58
2023-02-14T14:12:27.814Z,28.98
2023-02-14T14:17:29.382Z,30.05
2023-02-14T14:22:31.105Z,29.20
2023-02-14T14:27:40.089Z,29.85
2023-02-14T14:32:41.590Z,28.80
2023-02-14T14:37:57.265Z,29.08
2023-02-14T14:43:14.650Z,27.13
2023-02-14T14:48:28.897Z,29.10
2023-02-14T14:58:36.603Z,28.48
2023-02-14T15:03:38.242Z,27.38
2023-02-14T15:08:39.686Z,29.73
2023-02-14T15:13:50.485Z,28.60
2023-02-14T15:18:57.516Z,28.00
2023-02-14T15:24:00.902Z,32.60
2023-02-14T15:29:06.734Z,27.98
2023-02-14T15:34:10.101Z,29.88
2023-02-14T15:39:16.795Z,28.45
2023-02-14T15:44:23.573Z,29.30
2023-02-14T15:49:35.592Z,30.20
2023-02-14T15:54:41.871Z,29.67
2023-02-14T15:59:43.610Z,28.48
2023-02-14T16:04:45.209Z,28.40
2023-02-14T16:09:46.806Z,26.40
2023-02-14T16:15:14.890Z,26.10
2023-02-14T16:20:22.733Z,28.92
2023-02-14T16:25:24.229Z,27.83
2023-02-14T16:30:26.186Z,27.73
2023-02-14T16:35:29.431Z,28.90
2023-02-14T16:40:30.979Z,28.52
2023-02-14T16:45:32.508Z,28.77
2023-02-14T16:50:36.406Z,28.02
2023-02-14T16:55:38.007Z,29.83
2023-02-14T17:00:39.837Z,29.30
2023-02-14T17:05:41.655Z,28.25
2023-02-14T17:10:45.914Z,29.70
2023-02-14T17:15:48.645Z,29.58
2023-02-14T17:20:50.274Z,30.08
2023-02-14T17:25:52.064Z,30.70
2023-02-14T17:30:54.142Z,31.37
2023-02-14T17:35:56.105Z,30.30
2023-02-14T17:40:57.675Z,32.43
2023-02-14T17:45:59.152Z,33.03
2023-02-14T17:51:08.645Z,34.20
2023-02-14T17:56:11.686Z,35.90
2023-02-14T18:01:14.715Z,33.67
2023-02-14T18:06:16.218Z,34.63
2023-02-14T18:11:19.867Z,32.30
2023-02-14T18:16:21.940Z,33.60
2023-02-14T18:21:24.550Z,34.47
2023-02-14T18:26:26.804Z,33.87
2023-02-14T18:31:28.344Z,47.23
2023-02-14T18:36:31.776Z,34.30
2023-02-14T18:41:33.363Z,33.30
2023-02-14T18:46:36.058Z,34.50
2023-02-14T18:51:41.186Z,35.37
2023-02-14T18:56:42.954Z,37.60
2023-02-14T19:01:45.508Z,33.83
2023-02-14T19:06:47.124Z,34.43
2023-02-14T19:11:48.652Z,32.83
2023-02-14T19:16:51.924Z,35.13
2023-02-14T19:21:53.789Z,34.17
2023-02-14T19:26:56.781Z,33.87
2023-02-14T19:31:59.358Z,35.33
2023-02-14T19:37:02.304Z,39.83
2023-02-14T19:42:05.186Z,34.47
2023-02-14T19:47:22.800Z,37.50
2023-02-14T19:52:28.163Z,34.37
2023-02-14T19:57:29.636Z,38.43
2023-02-14T20:02:31.201Z,37.80
2023-02-14T20:07:32.714Z,39.97
2023-02-14T20:12:34.197Z,35.63
2023-02-14T20:17:35.746Z,39.80
2023-02-14T20:22:37.268Z,42.93
2023-02-14T20:27:38.902Z,45.13
2023-02-14T20:32:40.687Z,40.63
2023-02-14T20:37:42.238Z,37.63
2023-02-14T20:42:43.757Z,36.67
2023-02-14T20:47:48.687Z,37.23
2023-02-14T20:52:50.281Z,37.23
2023-02-14T20:57:51.753Z,36.30
2023-02-14T21:02:53.291Z,36.30
2023-02-14T21:07:54.726Z,36.00
2023-02-14T21:12:56.313Z,38.40
2023-02-14T21:17:57.804Z,37.13
2023-02-14T21:22:59.260Z,34.13
2023-02-14T21:28:00.778Z,34.77
2023-02-14T21:33:02.288Z,37.43
2023-02-14T21:38:04.792Z,39.70
2023-02-14T21:43:06.258Z,40.43
2023-02-14T21:48:26.094Z,39.97
2023-02-14T21:53:27.574Z,38.03
2023-02-14T21:58:29.128Z,38.30
2023-02-14T22:03:31.641Z,38.20
2023-02-14T22:08:34.007Z,35.47
2023-02-14T22:13:36.025Z,38.53
2023-02-14T22:18:38.567Z,38.17
2023-02-14T22:23:40.438Z,37.77
2023-02-14T22:28:43.170Z,35.53
2023-02-14T22:33:45.756Z,35.13
2023-02-14T22:38:47.279Z,35.53
2023-02-14T22:43:48.981Z,35.27
2023-02-14T22:48:51.801Z,33.70
2023-02-14T22:53:55.915Z,35.37
2023-02-14T22:59:06.275Z,35.03
2023-02-14T23:04:07.842Z,33.33
2023-02-14T23:09:11.495Z,35.33
2023-02-14T23:14:33.697Z,33.60
2023-02-14T23:19:55.405Z,34.97
2023-02-14T23:24:59.845Z,33.17
2023-02-14T23:30:01.883Z,32.17
2023-02-14T23:35:03.786Z,34.33
2023-02-14T23:40:06.658Z,33.63
2023-02-14T23:45:27.162Z,32.93
2023-02-14T23:50:28.616Z,31.57
2023-02-14T23:55:30.053Z,34.60
